Time;durP1;ratioP1;P1;durP2;ratioP2;P2;SDS_P1;SDS_P2;PMS_P1;PMS_P2;Temp;Humidity;BMP_temperature;BMP_pressure;BME280_temperature;BME280_humidity;BME280_pressure;Samples;Min_cycle;Max_cycle;Signal;HPM_P1;HPM_P2
2022/01/07 00:00:42;;;;;;;12.00;8.27;;;;;;;-0.47;98.12;98477.81;5056386;28;20423;-67
2022/01/07 00:03:09;;;;;;;15.40;8.07;;;;;;;-0.55;98.28;98475.06;5056257;28;20750;-68
2022/01/07 00:05:36;;;;;;;15.23;8.63;;;;;;;-0.58;98.15;98475.34;5055920;28;20418;-67
2022/01/07 00:08:02;;;;;;;12.70;8.13;;;;;;;-0.59;98.94;98478.09;5055957;28;20438;-67
2022/01/07 00:10:29;;;;;;;12.50;7.87;;;;;;;-0.55;98.70;98485.50;5056318;28;20427;-67
2022/01/07 00:12:56;;;;;;;11.83;7.40;;;;;;;-0.50;97.82;98472.88;5056240;28;20418;-67
2022/01/07 00:15:23;;;;;;;15.20;7.10;;;;;;;-0.53;98.38;98456.66;5056204;28;20502;-68
2022/01/07 00:17:49;;;;;;;12.37;6.87;;;;;;;-0.57;98.21;98461.34;5055787;28;20458;-67
2022/01/07 00:20:17;;;;;;;17.53;6.90;;;;;;;-0.58;98.24;98451.84;5056913;28;20703;-67
2022/01/07 00:22:46;;;;;;;11.60;6.37;;;;;;;-0.65;98.07;98449.94;5056141;28;20438;-67
2022/01/07 00:25:13;;;;;;;11.67;6.50;;;;;;;-0.68;98.23;98442.38;5056117;28;20462;-67
2022/01/07 00:27:40;;;;;;;9.67;5.90;;;;;;;-0.74;98.33;98445.53;5055747;28;20758;-67
2022/01/07 00:30:09;;;;;;;13.00;6.53;;;;;;;-0.74;98.71;98442.94;5056075;28;20430;-68
2022/01/07 00:32:36;;;;;;;10.23;5.70;;;;;;;-0.72;97.87;98428.78;5055720;28;20433;-68
2022/01/07 00:35:03;;;;;;;12.50;6.07;;;;;;;-0.74;97.85;98428.09;5055685;28;20419;-67
2022/01/07 00:37:29;;;;;;;10.20;6.17;;;;;;;-0.79;98.23;98427.72;5055929;28;20465;-67
2022/01/07 00:39:56;;;;;;;11.13;6.50;;;;;;;-0.85;97.93;98427.44;5055688;28;20429;-68
2022/01/07 00:42:22;;;;;;;10.00;5.80;;;;;;;-0.74;98.02;98433.34;5055805;28;20446;-67
2022/01/07 00:44:49;;;;;;;12.10;6.10;;;;;;;-0.70;97.92;98429.47;5055529;28;20549;-67
2022/01/07 00:47:16;;;;;;;8.17;5.50;;;;;;;-0.74;97.54;98433.34;5055814;28;20454;-67
2022/01/07 00:49:43;;;;;;;12.03;6.97;;;;;;;-0.69;98.23;98430.28;5055858;28;20762;-68
2022/01/07 00:52:10;;;;;;;10.47;6.27;;;;;;;-0.66;97.45;98435.25;5055805;28;20419;-68
2022/01/07 00:54:37;;;;;;;12.20;6.50;;;;;;;-0.70;97.49;98424.25;5055798;28;20426;-67
2022/01/07 00:57:03;;;;;;;10.10;6.73;;;;;;;-0.75;97.67;98428.25;5055771;28;20460;-68
2022/01/07 00:59:29;;;;;;;13.77;7.00;;;;;;;-0.78;97.63;98426.75;5055727;28;20418;-67
2022/01/07 01:01:56;;;;;;;13.63;6.80;;;;;;;-0.77;97.69;98423.16;5055480;28;20425;-68
2022/01/07 01:04:22;;;;;;;12.20;7.00;;;;;;;-0.85;97.60;98425.63;5055651;28;20472;-67
2022/01/07 01:06:49;;;;;;;14.37;7.30;;;;;;;-0.87;98.40;98424.97;5058918;28;20458;-67
2022/01/07 01:09:15;;;;;;;13.13;7.03;;;;;;;-0.87;98.14;98418.91;5059332;28;20422;-67
2022/01/07 01:11:42;;;;;;;12.20;6.43;;;;;;;-0.94;98.03;98420.44;5059274;28;20422;-67
2022/01/07 01:14:09;;;;;;;14.93;7.20;;;;;;;-0.93;98.76;98412.47;5058991;28;20861;-67
2022/01/07 01:16:37;;;;;;;12.37;7.23;;;;;;;-0.92;98.08;98405.44;5059183;28;20461;-68
2022/01/07 01:19:05;;;;;;;13.40;7.03;;;;;;;-0.86;97.94;98412.75;5059194;28;20423;-67
2022/01/07 01:21:32;;;;;;;11.03;7.40;;;;;;;-0.84;97.68;98410.81;5059633;28;20423;-67
2022/01/07 01:23:58;;;;;;;11.77;7.50;;;;;;;-0.77;97.70;98412.72;5059057;28;20466;-67
2022/01/07 01:26:24;;;;;;;17.80;8.30;;;;;;;-0.70;97.54;98410.38;5059058;28;20454;-67
2022/01/07 01:28:51;;;;;;;11.53;7.77;;;;;;;-0.69;97.38;98404.19;5058657;28;20426;-68
2022/01/07 01:31:18;;;;;;;16.23;7.90;;;;;;;-0.67;96.88;98397.06;5058800;28;20441;-67
2022/01/07 01:33:45;;;;;;;11.83;7.30;;;;;;;-0.69;97.27;98399.78;5058916;28;20518;-68
2022/01/07 01:36:13;;;;;;;12.07;7.40;;;;;;;-0.76;97.16;98406.53;5058785;28;20454;-67
2022/01/07 01:38:40;;;;;;;13.57;7.93;;;;;;;-0.77;96.77;98407.50;5058521;28;20426;-67
2022/01/07 01:41:07;;;;;;;11.17;6.93;;;;;;;-0.80;96.98;98402.53;5058500;28;20438;-68
2022/01/07 01:43:34;;;;;;;12.43;7.50;;;;;;;-0.86;97.39;98403.13;5058646;28;20423;-67
2022/01/07 01:46:01;;;;;;;10.10;8.20;;;;;;;-0.88;97.38;98396.38;5058619;28;20465;-67
2022/01/07 01:48:27;;;;;;;10.70;8.07;;;;;;;-0.82;97.29;98399.25;5058327;28;20768;-67
2022/01/07 01:50:56;;;;;;;12.77;8.20;;;;;;;-0.98;97.28;98398.19;5058296;28;20476;-68
2022/01/07 01:53:25;;;;;;;15.13;8.33;;;;;;;-0.89;97.14;98405.19;5058207;28;20835;-68
2022/01/07 01:55:52;;;;;;;12.03;7.50;;;;;;;-0.91;97.16;98394.88;5058374;28;20422;-67
2022/01/07 01:58:19;;;;;;;12.43;8.53;;;;;;;-0.94;97.70;98399.56;5057986;28;20853;-67
2022/01/07 02:00:45;;;;;;;12.63;7.70;;;;;;;-0.97;97.19;98379.78;5058293;28;20418;-68
2022/01/07 02:03:12;;;;;;;13.13;8.00;;;;;;;-0.91;97.08;98384.44;5058230;28;20431;-67
2022/01/07 02:05:38;;;;;;;15.17;8.73;;;;;;;-0.85;97.21;98375.25;5057683;28;20458;-68
2022/01/07 02:08:05;;;;;;;12.63;7.47;;;;;;;-0.79;96.96;98374.66;5058122;28;20423;-68
2022/01/07 02:10:31;;;;;;;10.40;8.37;;;;;;;-0.81;96.58;98364.38;5058284;28;20422;-68
2022/01/07 02:12:57;;;;;;;11.90;7.93;;;;;;;-0.76;96.32;98361.34;5058194;28;20427;-68
2022/01/07 02:15:24;;;;;;;15.93;8.83;;;;;;;-0.80;96.70;98359.97;5058076;28;20429;-68
2022/01/07 02:17:53;;;;;;;13.07;8.90;;;;;;;-0.84;96.90;98358.63;5057611;28;20461;-68
2022/01/07 02:20:25;;;;;;;12.33;8.57;;;;;;;-0.87;96.11;98359.72;5058433;28;20748;-68
2022/01/07 02:22:51;;;;;;;16.60;9.63;;;;;;;-0.92;97.23;98348.88;5057928;28;20427;-68
2022/01/07 02:25:20;;;;;;;15.07;9.03;;;;;;;-0.93;96.54;98352.47;5057699;28;20470;-68
2022/01/07 02:27:47;;;;;;;13.80;9.07;;;;;;;-0.91;96.22;98350.53;5057276;28;20764;-68
2022/01/07 02:30:23;;;;;;;16.20;8.97;;;;;;;-1.06;96.83;98343.28;5057923;28;20422;-67
2022/01/07 02:32:50;;;;;;;13.57;9.47;;;;;;;-1.12;96.88;98344.63;5057862;28;20426;-67
2022/01/07 02:35:21;;;;;;;14.03;9.63;;;;;;;-1.16;97.27;98343.31;5057827;28;20476;-68
2022/01/07 02:37:48;;;;;;;15.53;10.23;;;;;;;-1.11;97.09;98335.88;5057433;28;20457;-67
2022/01/07 02:40:15;;;;;;;18.70;9.20;;;;;;;-1.20;98.18;98338.47;5057438;28;20415;-68
2022/01/07 02:42:42;;;;;;;12.60;8.77;;;;;;;-1.10;97.08;98340.13;5057341;28;20473;-68
2022/01/07 02:45:10;;;;;;;14.27;9.03;;;;;;;-1.06;97.15;98338.88;5057201;28;20464;-68
2022/01/07 02:47:52;;;;;;;17.20;9.47;;;;;;;-1.08;97.12;98343.41;5057525;28;20450;-68
2022/01/07 02:50:20;;;;;;;15.10;8.30;;;;;;;-1.04;96.43;98336.13;5057507;28;20480;-68
2022/01/07 02:52:47;;;;;;;13.87;9.40;;;;;;;-1.03;96.82;98346.41;5057505;28;20419;-67
2022/01/07 02:55:13;;;;;;;14.50;8.70;;;;;;;-1.05;96.92;98339.69;5057445;28;20425;-68
2022/01/07 02:57:40;;;;;;;12.70;8.53;;;;;;;-0.88;95.71;98338.97;5057259;28;20449;-67
2022/01/07 03:00:08;;;;;;;12.07;8.30;;;;;;;-0.95;96.49;98338.72;5057374;28;20419;-67
2022/01/07 03:02:35;;;;;;;16.53;8.90;;;;;;;-1.00;96.63;98332.25;5057300;28;20426;-68
2022/01/07 03:05:01;;;;;;;14.13;8.93;;;;;;;-0.96;96.02;98325.81;5056904;28;20458;-67
2022/01/07 03:07:29;;;;;;;12.20;8.10;;;;;;;-0.90;95.36;98335.69;5057145;28;20465;-67
2022/01/07 03:09:56;;;;;;;12.93;6.90;;;;;;;-0.96;94.85;98334.47;5057223;28;20700;-68
2022/01/07 03:12:23;;;;;;;14.50;8.67;;;;;;;-1.08;96.10;98325.13;5056788;28;20418;-67
2022/01/07 03:14:49;;;;;;;13.63;7.97;;;;;;;-1.11;96.01;98324.59;5057079;28;20426;-68
2022/01/07 03:17:16;;;;;;;10.23;7.77;;;;;;;-1.09;95.36;98327.88;5057012;28;20512;-67
2022/01/07 03:19:44;;;;;;;10.07;7.03;;;;;;;-1.06;94.88;98328.44;5056951;28;20423;-68
2022/01/07 03:22:10;;;;;;;8.77;6.23;;;;;;;-0.93;94.75;98336.81;5056968;28;20743;-67
2022/01/07 03:24:38;;;;;;;8.57;6.67;;;;;;;-1.05;94.14;98343.13;5056557;28;20928;-68
2022/01/07 03:27:04;;;;;;;14.23;7.47;;;;;;;-0.99;94.41;98339.16;5056677;28;20493;-67
2022/01/07 03:29:31;;;;;;;10.43;7.30;;;;;;;-1.08;95.17;98335.56;5056005;28;20419;-68
2022/01/07 03:31:57;;;;;;;14.30;8.10;;;;;;;-1.13;94.92;98337.78;5056817;28;20422;-67
2022/01/07 03:34:23;;;;;;;12.57;7.57;;;;;;;-1.11;95.95;98324.59;5056800;28;20425;-68
2022/01/07 03:36:50;;;;;;;13.33;8.10;;;;;;;-1.13;95.51;98313.50;5056569;28;20461;-67
2022/01/07 03:39:16;;;;;;;19.33;9.50;;;;;;;-1.06;96.09;98319.78;5056746;28;20418;-68
2022/01/07 03:41:44;;;;;;;15.83;9.10;;;;;;;-1.13;95.28;98316.91;5056425;28;20449;-67
2022/01/07 03:44:11;;;;;;;11.37;8.07;;;;;;;-1.19;96.24;98335.75;5056564;28;20445;-68
2022/01/07 03:46:37;;;;;;;15.40;8.80;;;;;;;-1.28;96.18;98325.31;5056243;28;20461;-67
2022/01/07 03:49:04;;;;;;;12.17;8.80;;;;;;;-1.26;96.20;98326.00;5056241;28;20430;-67
2022/01/07 03:51:31;;;;;;;13.40;8.90;;;;;;;-1.36;96.65;98331.22;5056540;28;20442;-68
2022/01/07 03:53:57;;;;;;;12.53;8.40;;;;;;;-1.16;96.36;98330.25;5056553;28;20422;-67
2022/01/07 03:56:23;;;;;;;13.63;8.77;;;;;;;-1.18;95.83;98320.91;5056097;28;20454;-67
2022/01/07 03:58:50;;;;;;;15.83;9.03;;;;;;;-1.16;95.70;98322.44;5056125;28;20860;-67
2022/01/07 04:01:16;;;;;;;13.13;7.73;;;;;;;-1.10;95.57;98318.41;5056441;28;20429;-68
2022/01/07 04:03:42;;;;;;;14.17;8.13;;;;;;;-1.13;95.13;98318.72;5056340;28;20441;-68
2022/01/07 04:06:09;;;;;;;11.93;8.03;;;;;;;-1.17;95.57;98314.75;5056143;28;20485;-67
2022/01/07 04:08:35;;;;;;;12.10;9.17;;;;;;;-1.19;95.47;98334.91;5056009;28;20434;-68
2022/01/07 04:11:02;;;;;;;12.33;7.60;;;;;;;-1.21;95.19;98335.03;5055998;28;20419;-68
2022/01/07 04:13:28;;;;;;;10.33;7.40;;;;;;;-1.19;95.75;98332.28;5056303;28;20420;-68
2022/01/07 04:15:54;;;;;;;12.57;7.77;;;;;;;-1.25;96.19;98328.47;5056242;28;20450;-68
2022/01/07 04:18:21;;;;;;;13.77;7.87;;;;;;;-1.23;96.65;98325.72;5056279;28;20437;-67
2022/01/07 04:20:47;;;;;;;11.90;7.23;;;;;;;-1.25;96.00;98318.06;5056201;28;20536;-67
2022/01/07 04:23:13;;;;;;;12.27;7.67;;;;;;;-1.29;96.09;98319.28;5055862;28;20872;-67
2022/01/07 04:25:40;;;;;;;9.53;7.17;;;;;;;-1.35;96.10;98326.84;5055972;28;20481;-68
2022/01/07 04:28:08;;;;;;;11.00;6.63;;;;;;;-1.34;95.78;98337.13;5056123;28;20427;-68
2022/01/07 04:30:37;;;;;;;10.97;7.20;;;;;;;-1.21;96.01;98335.03;5056034;28;20422;-68
2022/01/07 04:33:05;;;;;;;12.93;6.80;;;;;;;-1.20;95.13;98336.72;5055705;28;20719;-68
2022/01/07 04:35:33;;;;;;;9.57;7.00;;;;;;;-1.24;95.03;98337.94;5055575;28;20889;-68
2022/01/07 04:38:00;;;;;;;9.80;6.27;;;;;;;-1.22;94.44;98341.22;5055954;28;20435;-69
2022/01/07 04:40:27;;;;;;;11.63;6.20;;;;;;;-1.18;94.86;98334.78;5058432;28;20434;-68
2022/01/07 04:42:54;;;;;;;10.03;6.73;;;;;;;-1.21;94.81;98342.88;5059299;28;20453;-68
2022/01/07 04:45:21;;;;;;;8.00;6.13;;;;;;;-1.25;95.11;98340.69;5059571;28;20462;-68
2022/01/07 04:47:48;;;;;;;13.80;6.40;;;;;;;-1.29;94.71;98340.16;5059162;28;20461;-68
2022/01/07 04:50:17;;;;;;;9.43;6.37;;;;;;;-1.19;95.12;98337.50;5059642;28;20444;-68
2022/01/07 04:52:44;;;;;;;9.43;5.50;;;;;;;-1.17;93.75;98351.25;5059618;28;20427;-68
2022/01/07 04:55:17;;;;;;;7.57;5.50;;;;;;;-1.17;94.21;98344.22;5059261;28;20857;-68
2022/01/07 04:57:45;;;;;;;10.30;5.83;;;;;;;-1.18;93.79;98347.81;5059266;28;20900;-68
2022/01/07 05:00:13;;;;;;;9.47;5.80;;;;;;;-1.16;94.26;98353.72;5059506;28;20426;-68
2022/01/07 05:02:39;;;;;;;7.23;5.00;;;;;;;-1.10;92.66;98350.56;5059397;28;20429;-68
2022/01/07 05:05:06;;;;;;;7.97;4.97;;;;;;;-1.20;92.75;98352.34;5059056;28;20461;-68
2022/01/07 05:07:34;;;;;;;7.37;4.67;;;;;;;-1.13;93.10;98357.84;5059190;28;20453;-68
2022/01/07 05:10:00;;;;;;;6.93;5.13;;;;;;;-1.15;92.65;98344.94;5058984;28;20452;-68
2022/01/07 05:12:27;;;;;;;8.00;4.90;;;;;;;-1.11;93.07;98353.31;5059247;28;20426;-68
2022/01/07 05:14:53;;;;;;;6.60;4.77;;;;;;;-1.18;92.63;98350.41;5059316;28;20423;-68
2022/01/07 05:17:19;;;;;;;8.00;5.07;;;;;;;-1.11;91.67;98353.31;5059164;28;20458;-68
2022/01/07 05:19:46;;;;;;;6.70;4.73;;;;;;;-1.11;91.77;98350.69;5059124;28;20429;-68
2022/01/07 05:22:12;;;;;;;8.43;5.20;;;;;;;-1.23;92.75;98351.78;5059136;28;20422;-68
2022/01/07 05:24:38;;;;;;;7.63;5.30;;;;;;;-1.26;93.81;98355.50;5058905;28;20425;-68
2022/01/07 05:27:05;;;;;;;5.87;5.20;;;;;;;-1.27;93.26;98353.03;5058814;28;20449;-68
2022/01/07 05:29:34;;;;;;;7.77;5.70;;;;;;;-1.25;93.53;98358.94;5059802;28;20426;-68
2022/01/07 05:32:01;;;;;;;6.53;5.20;;;;;;;-1.20;92.68;98357.56;5058813;28;20470;-68
2022/01/07 05:34:27;;;;;;;6.10;5.17;;;;;;;-1.25;92.44;98353.72;5059199;28;20422;-68
2022/01/07 05:36:54;;;;;;;8.47;5.63;;;;;;;-1.22;92.38;98345.63;5058354;28;20461;-68
2022/01/07 05:39:20;;;;;;;9.63;5.97;;;;;;;-1.20;93.16;98346.31;5058720;28;20426;-68
2022/01/07 05:41:46;;;;;;;9.33;5.40;;;;;;;-1.20;92.50;98336.72;5058620;28;20446;-68
2022/01/07 05:44:13;;;;;;;9.30;6.37;;;;;;;-1.17;93.15;98333.81;5058317;28;20438;-68
2022/01/07 05:46:39;;;;;;;7.70;5.60;;;;;;;-1.13;92.14;98322.13;5057879;28;20481;-68
2022/01/07 05:49:05;;;;;;;8.73;6.10;;;;;;;-1.01;92.19;98322.78;5058455;28;20437;-68
2022/01/07 05:51:32;;;;;;;10.33;6.30;;;;;;;-0.95;90.98;98317.03;5057404;28;20841;-68
2022/01/07 05:53:58;;;;;;;8.27;5.90;;;;;;;-0.96;90.34;98316.19;5059046;28;20426;-68
2022/01/07 05:56:26;;;;;;;9.13;5.63;;;;;;;-0.91;91.03;98315.75;5057864;28;20924;-67
2022/01/07 05:58:52;;;;;;;9.87;6.60;;;;;;;-0.84;90.38;98329.91;5058226;28;20422;-68
2022/01/07 06:01:19;;;;;;;8.17;5.83;;;;;;;-0.85;90.61;98315.22;5058062;28;20423;-67
2022/01/07 06:03:45;;;;;;;8.80;5.87;;;;;;;-0.94;91.24;98316.88;5058539;28;20427;-69
2022/01/07 06:06:12;;;;;;;9.40;5.60;;;;;;;-0.87;90.29;98317.97;5057554;28;20955;-67
2022/01/07 06:08:38;;;;;;;9.63;6.53;;;;;;;-0.88;91.56;98315.50;5057989;28;20449;-68
2022/01/07 06:11:05;;;;;;;9.97;6.57;;;;;;;-0.86;91.02;98318.81;5058064;28;20429;-68
2022/01/07 06:13:32;;;;;;;9.73;6.53;;;;;;;-0.96;91.79;98310.16;5057616;28;20429;-67
2022/01/07 06:15:58;;;;;;;9.40;6.70;;;;;;;-0.75;89.97;98310.78;5057584;28;20451;-67
2022/01/07 06:18:25;;;;;;;9.23;6.43;;;;;;;-0.83;90.23;98313.28;5057716;28;20842;-68
2022/01/07 06:20:51;;;;;;;10.27;6.60;;;;;;;-0.89;90.59;98306.81;5058429;28;20441;-68
2022/01/07 06:23:17;;;;;;;10.77;7.17;;;;;;;-0.82;90.90;98310.53;5057495;28;20419;-68
2022/01/07 06:25:48;;;;;;;10.07;6.63;;;;;;;-0.81;91.57;98306.16;5057499;28;20469;-67
2022/01/07 06:28:15;;;;;;;9.53;7.07;;;;;;;-0.85;91.83;98304.78;5057709;28;20522;-68
2022/01/07 06:30:41;;;;;;;11.37;7.30;;;;;;;-0.82;91.84;98297.47;5057448;28;20430;-67
2022/01/07 06:33:07;;;;;;;12.23;7.93;;;;;;;-0.74;91.28;98299.38;5057070;28;20442;-67
2022/01/07 06:35:34;;;;;;;11.77;7.47;;;;;;;-0.74;90.82;98295.00;5057280;28;20435;-67
2022/01/07 06:38:00;;;;;;;12.27;7.13;;;;;;;-0.68;91.34;98289.19;5057419;28;20423;-68
2022/01/07 06:40:27;;;;;;;12.90;7.80;;;;;;;-0.65;90.92;98291.53;5057398;28;20418;-68
2022/01/07 06:42:53;;;;;;;8.67;7.13;;;;;;;-0.65;90.90;98295.91;5057053;28;20453;-68
2022/01/07 06:45:19;;;;;;;11.67;8.10;;;;;;;-0.63;90.34;98301.81;5057040;28;20905;-68
2022/01/07 06:47:46;;;;;;;8.97;7.43;;;;;;;-0.62;90.76;98298.25;5057152;28;20462;-67
2022/01/07 06:50:13;;;;;;;10.73;7.80;;;;;;;-0.66;90.66;98300.31;5057201;28;20427;-68
2022/01/07 06:52:40;;;;;;;13.87;8.07;;;;;;;-0.65;91.36;98299.34;5057182;28;20422;-67
2022/01/07 06:55:06;;;;;;;11.33;8.00;;;;;;;-0.63;90.84;98284.34;5056971;28;20721;-68
2022/01/07 06:57:33;;;;;;;10.83;7.57;;;;;;;-0.59;90.43;98290.09;5057112;28;20464;-68
2022/01/07 06:59:59;;;;;;;9.97;7.13;;;;;;;-0.60;90.70;98276.25;5057177;28;20435;-67
2022/01/07 07:02:26;;;;;;;11.57;8.50;;;;;;;-0.59;89.83;98284.88;5056339;28;20696;-68
2022/01/07 07:04:52;;;;;;;11.73;7.30;;;;;;;-0.61;90.34;98284.22;5056604;28;20438;-67
2022/01/07 07:07:19;;;;;;;12.00;8.10;;;;;;;-0.61;90.49;98279.00;5056882;28;20459;-68
2022/01/07 07:09:45;;;;;;;11.53;8.13;;;;;;;-0.53;89.33;98279.09;5057008;28;20425;-68
2022/01/07 07:12:12;;;;;;;9.77;7.37;;;;;;;-0.52;89.52;98270.28;5056943;28;20426;-67
2022/01/07 07:14:39;;;;;;;11.00;7.93;;;;;;;-0.54;89.68;98272.25;5056894;28;20480;-68
2022/01/07 07:17:06;;;;;;;10.03;7.67;;;;;;;-0.50;90.06;98269.19;5056726;28;20529;-68
2022/01/07 07:19:32;;;;;;;9.37;7.30;;;;;;;-0.47;89.38;98268.91;5056682;28;20731;-68
2022/01/07 07:21:59;;;;;;;11.23;7.67;;;;;;;-0.45;90.30;98269.56;5056707;28;20422;-68
2022/01/07 07:24:25;;;;;;;12.30;7.87;;;;;;;-0.41;88.68;98270.91;5056651;28;20426;-68
2022/01/07 07:26:52;;;;;;;9.53;7.83;;;;;;;-0.37;88.27;98261.00;5056221;28;20481;-68
2022/01/07 07:29:18;;;;;;;10.33;7.23;;;;;;;-0.37;88.73;98258.38;5056456;28;20437;-68
2022/01/07 07:31:49;;;;;;;10.20;7.07;;;;;;;-0.45;89.06;98258.31;5056454;28;20428;-68
2022/01/07 07:34:44;;;;;;;9.60;7.47;;;;;;;-0.39;88.26;98261.16;5056186;28;20469;-68
2022/01/07 07:37:13;;;;;;;9.87;7.07;;;;;;;-0.36;88.73;98258.25;5056111;28;20991;-68
2022/01/07 07:39:40;;;;;;;10.43;8.20;;;;;;;-0.32;88.20;98253.53;5056529;28;20433;-67
2022/01/07 07:42:07;;;;;;;8.83;7.00;;;;;;;-0.25;87.43;98252.84;5056122;28;20460;-68
2022/01/07 07:44:33;;;;;;;9.40;7.30;;;;;;;-0.33;88.35;98247.50;5056244;28;20522;-68
2022/01/07 07:47:00;;;;;;;9.00;7.10;;;;;;;-0.28;88.26;98250.50;5056110;28;20482;-67
2022/01/07 07:49:26;;;;;;;9.53;7.37;;;;;;;-0.19;88.05;98254.00;5056262;28;20422;-68
2022/01/07 07:51:53;;;;;;;9.43;7.80;;;;;;;-0.22;88.09;98247.28;5056177;28;20423;-67
2022/01/07 07:54:20;;;;;;;11.07;7.57;;;;;;;-0.13;88.03;98248.22;5056263;28;20728;-68
2022/01/07 07:56:46;;;;;;;9.00;6.87;;;;;;;-0.16;88.29;98249.34;5055787;28;20446;-69
2022/01/07 07:59:13;;;;;;;13.03;8.00;;;;;;;-0.06;87.43;98247.47;5056193;28;20419;-68
2022/01/07 08:01:39;;;;;;;8.80;6.87;;;;;;;-0.05;87.34;98245.66;5056112;28;20742;-68
2022/01/07 08:04:07;;;;;;;12.27;8.47;;;;;;;-0.01;87.29;98239.19;5055658;28;20929;-68
2022/01/07 08:06:33;;;;;;;9.07;7.17;;;;;;;0.10;87.13;98241.59;5056008;28;20478;-68
2022/01/07 08:09:00;;;;;;;8.97;6.63;;;;;;;0.08;86.65;98237.47;5056220;28;20417;-68
2022/01/07 08:11:31;;;;;;;9.83;6.67;;;;;;;0.07;86.05;98241.88;5056052;28;20422;-68
2022/01/07 08:16:41;;;;;;;8.10;6.60;;;;;;;0.17;85.84;98241.81;5060165;28;20441;-68
2022/01/07 08:19:07;;;;;;;10.30;7.33;;;;;;;0.17;86.18;98231.34;5059891;28;20856;-68
2022/01/07 08:21:35;;;;;;;9.90;6.67;;;;;;;0.14;86.34;98228.06;5059833;28;20733;-68
2022/01/07 08:24:01;;;;;;;9.93;6.67;;;;;;;0.17;85.61;98227.78;5059764;28;20197;-68
2022/01/07 08:26:28;;;;;;;10.73;7.03;;;;;;;0.23;85.07;98221.13;5059586;28;20912;-67
2022/01/07 08:28:57;;;;;;;11.23;7.17;;;;;;;0.25;85.31;98224.41;5059864;28;20786;-68
2022/01/07 08:36:53;;;;;;;8.40;6.13;;;;;;;0.33;85.13;98216.63;5059559;28;20250;-68
2022/01/07 08:39:19;;;;;;;7.20;5.97;;;;;;;0.40;84.12;98214.22;5059843;28;20190;-68
2022/01/07 08:41:45;;;;;;;9.70;6.77;;;;;;;0.42;85.43;98214.88;5059231;28;20759;-68
2022/01/07 08:44:12;;;;;;;7.80;6.67;;;;;;;0.38;84.37;98220.41;5059518;28;20201;-68
2022/01/07 08:46:39;;;;;;;12.90;6.37;;;;;;;0.47;84.84;98215.25;5059389;28;20234;-67
2022/01/07 08:49:06;;;;;;;10.60;6.57;;;;;;;0.44;84.00;98223.41;5059159;28;20200;-68
2022/01/07 08:51:33;;;;;;;8.53;6.57;;;;;;;0.43;83.42;98226.97;5059611;28;20216;-68
2022/01/07 08:53:59;;;;;;;11.00;7.00;;;;;;;0.44;83.17;98226.03;5059599;28;20529;-68
2022/01/07 08:56:26;;;;;;;9.70;6.43;;;;;;;0.51;83.75;98221.81;5059509;28;20217;-68
2022/01/07 08:58:53;;;;;;;8.70;6.53;;;;;;;0.53;83.48;98225.94;5059461;28;20244;-68
2022/01/07 09:01:21;;;;;;;9.10;6.80;;;;;;;0.55;82.64;98220.53;5059563;28;20718;-68
2022/01/07 09:03:48;;;;;;;11.20;6.53;;;;;;;0.65;83.09;98223.88;5059195;28;20430;-68
2022/01/07 09:06:14;;;;;;;7.50;5.73;;;;;;;0.80;82.29;98223.16;5058784;28;20232;-67
2022/01/07 09:08:41;;;;;;;8.07;6.20;;;;;;;0.82;82.39;98223.03;5058934;28;20895;-68
2022/01/07 09:11:08;;;;;;;9.47;6.50;;;;;;;0.85;81.95;98220.91;5058826;28;20592;-73
2022/01/07 09:13:34;;;;;;;8.43;6.30;;;;;;;0.86;81.47;98219.13;5059283;28;20189;-72
2022/01/07 09:16:00;;;;;;;8.77;6.13;;;;;;;0.93;80.78;98222.75;5058740;28;20213;-72
2022/01/07 09:18:27;;;;;;;6.57;5.63;;;;;;;0.89;80.38;98217.00;5058884;28;20600;-72
2022/01/07 09:20:54;;;;;;;8.17;6.23;;;;;;;0.99;80.37;98209.06;5058818;28;20197;-72
2022/01/07 09:23:20;;;;;;;7.00;5.93;;;;;;;1.06;80.47;98213.53;5058780;28;20186;-72
2022/01/07 09:25:47;;;;;;;7.87;5.47;;;;;;;1.02;80.15;98211.34;5057573;28;20217;-72
2022/01/07 09:28:13;;;;;;;7.30;6.03;;;;;;;1.12;80.18;98209.47;5059288;28;20196;-72
2022/01/07 09:30:39;;;;;;;10.13;5.30;;;;;;;1.03;79.76;98200.72;5058688;28;20605;-72
2022/01/07 09:33:06;;;;;;;7.13;5.60;;;;;;;1.11;79.31;98208.63;5058638;28;20573;-72
2022/01/07 09:35:32;;;;;;;7.60;5.77;;;;;;;1.12;78.94;98199.00;5058320;28;20597;-72
2022/01/07 09:37:59;;;;;;;6.90;5.63;;;;;;;1.10;79.16;98211.41;5058504;28;20233;-72
2022/01/07 09:40:25;;;;;;;7.47;5.57;;;;;;;1.15;79.66;98199.50;5058707;28;20205;-72
2022/01/07 09:43:04;;;;;;;8.43;5.40;;;;;;;1.24;78.71;98202.94;5057983;28;20523;-72
2022/01/07 09:45:33;;;;;;;6.07;4.90;;;;;;;1.16;79.42;98197.69;5058347;28;20189;-72
2022/01/07 09:48:01;;;;;;;8.20;5.23;;;;;;;1.21;79.15;98198.84;5058831;28;20221;-72
2022/01/07 09:50:29;;;;;;;6.73;5.30;;;;;;;1.26;78.46;98195.78;5058378;28;20224;-72
2022/01/07 09:52:55;;;;;;;7.00;5.07;;;;;;;1.23;77.68;98196.91;5058081;28;20198;-72
2022/01/07 09:55:22;;;;;;;6.57;5.07;;;;;;;1.22;79.60;98190.00;5058401;28;20199;-72
2022/01/07 09:57:48;;;;;;;6.57;5.00;;;;;;;1.17;77.55;98188.88;5058220;28;20222;-72
2022/01/07 10:00:16;;;;;;;6.70;4.80;;;;;;;1.17;77.48;98188.88;5058209;28;20189;-72
2022/01/07 10:03:00;;;;;;;8.00;5.17;;;;;;;1.18;79.98;98191.34;5058357;28;20204;-72
2022/01/07 10:05:26;;;;;;;7.70;5.50;;;;;;;1.29;78.55;98180.56;5058048;28;20604;-72
2022/01/07 10:07:53;;;;;;;7.47;5.70;;;;;;;1.27;77.96;98187.78;5057938;28;20235;-72
2022/01/07 10:10:19;;;;;;;6.43;4.83;;;;;;;1.25;78.63;98183.63;5057879;28;20193;-72
2022/01/07 10:13:00;;;;;;;6.63;5.23;;;;;;;1.22;79.71;98183.97;5057809;28;20200;-72
2022/01/07 10:15:32;;;;;;;6.23;5.60;;;;;;;1.11;80.66;98184.25;5057414;28;20220;-72
2022/01/07 10:18:10;;;;;;;8.33;5.37;;;;;;;1.13;81.00;98175.25;5057830;28;20217;-72
2022/01/07 10:20:47;;;;;;;7.20;5.80;;;;;;;1.18;82.83;98172.19;5057983;28;20483;-72
2022/01/07 10:23:17;;;;;;;6.40;5.50;;;;;;;1.24;82.48;98176.78;5057694;28;20190;-71
2022/01/07 10:25:46;;;;;;;8.30;6.03;;;;;;;1.05;83.51;98180.47;5057688;28;20189;-72
2022/01/07 10:28:15;;;;;;;6.93;5.60;;;;;;;1.08;83.70;98174.91;5057584;28;20229;-72
2022/01/07 10:30:51;;;;;;;7.83;5.47;;;;;;;1.22;84.35;98163.81;5057205;28;20540;-72
2022/01/07 10:33:25;;;;;;;7.27;5.77;;;;;;;1.14;85.10;98150.72;5057759;28;20189;-72
2022/01/07 10:36:07;;;;;;;7.17;5.97;;;;;;;1.22;86.29;98152.56;5057474;28;20185;-72
2022/01/07 10:38:36;;;;;;;7.13;5.30;;;;;;;1.27;86.23;98155.50;5057344;28;20193;-72
2022/01/07 10:41:03;;;;;;;8.33;6.37;;;;;;;1.31;86.79;98149.00;5057264;28;20205;-72
2022/01/07 10:43:35;;;;;;;7.57;5.97;;;;;;;1.17;86.73;98141.75;5057121;28;20502;-72
2022/01/07 10:46:20;;;;;;;7.17;5.60;;;;;;;1.28;87.78;98137.03;5057353;28;20232;-72
2022/01/07 10:48:55;;;;;;;11.53;6.63;;;;;;;1.46;87.52;98135.13;5057423;28;20193;-73
2022/01/07 10:51:24;;;;;;;8.53;6.10;;;;;;;1.26;87.61;98146.03;5057399;28;20188;-72
2022/01/07 10:53:57;;;;;;;7.57;5.77;;;;;;;1.07;89.28;98146.28;5056985;28;20186;-72
2022/01/07 10:56:32;;;;;;;8.87;5.83;;;;;;;0.99;89.58;98139.19;5056910;28;20218;-72
2022/01/07 10:59:02;;;;;;;12.00;7.03;;;;;;;0.90;91.41;98142.75;5056717;28;20201;-72
2022/01/07 11:01:29;;;;;;;9.43;6.90;;;;;;;0.78;92.91;98140.56;5056691;28;20822;-72
2022/01/07 11:04:00;;;;;;;9.03;7.70;;;;;;;0.77;93.91;98144.16;5057472;28;20196;-72
2022/01/07 11:06:29;;;;;;;12.53;7.30;;;;;;;0.74;95.04;98131.38;5056322;28;20240;-72
2022/01/07 11:08:57;;;;;;;11.47;8.03;;;;;;;0.73;95.48;98129.75;5056376;28;20869;-72
2022/01/07 11:11:27;;;;;;;10.03;7.30;;;;;;;0.88;95.43;98130.81;5056411;28;20199;-72
2022/01/07 11:13:53;;;;;;;11.67;7.50;;;;;;;0.80;96.39;98128.97;5056135;28;20232;-72
2022/01/07 11:16:20;;;;;;;10.60;7.00;;;;;;;0.88;96.17;98122.94;5056216;28;20217;-72
2022/01/07 11:18:49;;;;;;;10.80;8.23;;;;;;;0.71;97.51;98126.50;5056951;28;20411;-73
2022/01/07 11:21:19;;;;;;;12.67;8.50;;;;;;;0.71;97.95;98116.81;5056487;28;20430;-72
2022/01/07 11:23:46;;;;;;;12.00;8.30;;;;;;;0.69;99.09;98117.97;5056568;28;20426;-72
2022/01/07 11:26:15;;;;;;;10.67;8.00;;;;;;;0.80;99.13;98117.69;5055867;28;20454;-72
2022/01/07 11:29:02;;;;;;;11.63;8.07;;;;;;;0.98;98.81;98123.69;5056028;28;20892;-72
2022/01/07 11:31:30;;;;;;;11.50;8.13;;;;;;;0.91;98.13;98110.41;5056362;28;20496;-73
2022/01/07 11:34:22;;;;;;;11.17;7.43;;;;;;;0.96;97.54;98112.53;5056040;28;20208;-72
2022/01/07 11:36:48;;;;;;;11.33;7.90;;;;;;;1.10;97.66;98094.44;5056210;28;20225;-72
2022/01/07 11:39:15;;;;;;;8.13;7.30;;;;;;;1.12;96.78;98096.91;5055973;28;20577;-72
2022/01/07 11:41:42;;;;;;;10.23;7.53;;;;;;;1.19;96.95;98088.25;5056038;28;20267;-72